createdAt,value
2019-06-07T00:01:46.236Z,8.23
2019-06-07T00:03:48.247Z,4.67
2019-06-07T00:05:50.255Z,7.00
2019-06-07T00:07:52.276Z,8.05
2019-06-07T00:09:54.354Z,5.65
2019-06-07T00:11:56.357Z,7.37
2019-06-07T00:14:01.173Z,6.28
2019-06-07T00:16:03.206Z,7.05
2019-06-07T00:18:05.455Z,6.08
2019-06-07T00:20:09.334Z,7.10
2019-06-07T00:22:18.505Z,10.05
2019-06-07T00:24:16.880Z,10.18
2019-06-07T00:26:21.291Z,5.40
2019-06-07T00:28:24.068Z,5.47
2019-06-07T00:30:48.840Z,8.85
2019-06-07T00:32:30.087Z,6.58
2019-06-07T00:34:32.188Z,9.10
2019-06-07T00:36:34.197Z,6.83
2019-06-07T00:38:36.318Z,12.95
2019-06-07T00:40:38.524Z,8.70
2019-06-07T00:42:40.512Z,12.03
2019-06-07T00:44:42.554Z,11.08
2019-06-07T00:46:44.619Z,8.28
2019-06-07T00:48:46.587Z,9.93
2019-06-07T00:50:48.631Z,9.05
2019-06-07T00:54:54.634Z,11.55
2019-06-07T00:56:56.636Z,9.45
2019-06-07T00:59:10.856Z,11.97
2019-06-07T01:01:02.877Z,12.07
2019-06-07T01:03:04.845Z,11.95
2019-06-07T01:05:07.363Z,11.75
2019-06-07T01:09:12.897Z,12.10
2019-06-07T01:11:15.931Z,10.93
2019-06-07T01:13:19.458Z,12.30
2019-06-07T01:15:28.537Z,13.03
2019-06-07T01:17:49.709Z,12.80
2019-06-07T01:19:34.528Z,13.00
2019-06-07T01:25:42.132Z,13.22
2019-06-07T01:27:44.340Z,15.75
2019-06-07T01:29:46.661Z,18.07
2019-06-07T01:31:48.989Z,17.05
2019-06-07T01:33:51.524Z,14.75
2019-06-07T01:35:53.641Z,17.40
2019-06-07T01:37:55.883Z,17.07
2019-06-07T01:39:57.931Z,13.25
2019-06-07T01:42:00.122Z,19.02
2019-06-07T01:44:02.142Z,17.52
2019-06-07T01:46:04.180Z,17.37
2019-06-07T01:48:06.392Z,18.42
2019-06-07T01:50:08.751Z,17.90
2019-06-07T01:52:10.782Z,17.23
2019-06-07T01:54:49.327Z,17.65
2019-06-07T01:56:18.582Z,20.80
2019-06-07T01:58:22.257Z,20.10
2019-06-07T02:00:26.605Z,16.87
2019-06-07T02:02:31.626Z,21.35
2019-06-07T02:04:33.710Z,21.35
2019-06-07T02:06:37.344Z,21.20
2019-06-07T02:08:39.306Z,20.72
2019-06-07T02:10:41.327Z,22.20
2019-06-07T02:12:43.786Z,25.23
2019-06-07T02:16:47.386Z,24.35
2019-06-07T02:19:01.525Z,26.45
2019-06-07T02:20:53.486Z,25.27
2019-06-07T02:22:55.469Z,23.77
2019-06-07T02:25:34.543Z,21.75
2019-06-07T02:27:01.410Z,21.93
2019-06-07T02:29:03.803Z,24.60
2019-06-07T02:31:05.805Z,29.37
2019-06-07T02:33:07.797Z,27.10
2019-06-07T02:35:10.044Z,26.45
2019-06-07T02:37:12.020Z,26.55
2019-06-07T02:39:14.022Z,29.87
2019-06-07T02:41:16.052Z,24.72
2019-06-07T02:43:18.061Z,33.58
2019-06-07T02:45:20.268Z,26.37
2019-06-07T02:47:22.803Z,28.38
2019-06-07T02:49:28.407Z,31.12
2019-06-07T02:51:40.021Z,28.83
2019-06-07T02:53:39.511Z,32.63
2019-06-07T02:56:26.531Z,32.15
2019-06-07T02:57:42.334Z,34.30
2019-06-07T03:00:06.849Z,33.88
2019-06-07T03:01:49.909Z,38.25
2019-06-07T03:03:52.160Z,34.30
2019-06-07T03:05:55.478Z,38.15
2019-06-07T03:07:57.796Z,34.25
2019-06-07T03:10:00.182Z,35.52
2019-06-07T03:14:05.426Z,35.55
2019-06-07T03:16:09.392Z,35.38
2019-06-07T03:18:41.238Z,34.75
2019-06-07T03:20:43.800Z,39.58
2019-06-07T03:22:47.763Z,37.55
2019-06-07T03:24:49.941Z,39.88
2019-06-07T03:28:56.691Z,36.08
2019-06-07T03:31:02.804Z,33.15
2019-06-07T03:33:02.993Z,36.73
2019-06-07T03:35:05.626Z,38.42
2019-06-07T03:37:07.669Z,33.50
2019-06-07T03:39:09.642Z,32.05
2019-06-07T03:41:11.688Z,34.15
2019-06-07T03:43:13.859Z,37.60
2019-06-07T03:45:15.848Z,36.25
2019-06-07T03:47:17.861Z,31.55
2019-06-07T03:49:20.090Z,30.65
2019-06-07T03:51:25.360Z,32.50
2019-06-07T03:53:29.231Z,30.43
2019-06-07T03:55:31.224Z,35.28
2019-06-07T03:58:24.848Z,30.00
2019-06-07T03:59:41.329Z,32.65
2019-06-07T04:01:42.839Z,30.85
2019-06-07T04:03:51.419Z,33.53
2019-06-07T04:05:50.364Z,32.60
2019-06-07T04:07:52.524Z,28.67
2019-06-07T04:09:55.026Z,25.77
2019-06-07T04:11:57.000Z,30.15
2019-06-07T04:13:59.069Z,27.58
2019-06-07T04:16:01.059Z,32.65
2019-06-07T04:18:04.151Z,25.62
2019-06-07T04:20:06.436Z,29.10
2019-06-07T04:22:08.528Z,29.10
2019-06-07T04:24:10.826Z,30.02
2019-06-07T04:26:12.796Z,35.25
2019-06-07T04:28:14.865Z,27.77
2019-06-07T04:30:37.282Z,27.77
2019-06-07T04:32:44.667Z,29.35
2019-06-07T04:34:44.390Z,30.10
2019-06-07T04:36:58.752Z,32.73
2019-06-07T04:38:51.591Z,27.50
2019-06-07T04:40:53.647Z,27.05
2019-06-07T04:42:56.031Z,31.87
2019-06-07T04:44:58.630Z,24.45
2019-06-07T04:49:03.815Z,25.45
2019-06-07T04:51:07.578Z,28.05
2019-06-07T04:53:09.604Z,27.22
2019-06-07T04:55:11.667Z,28.35
2019-06-07T04:57:13.664Z,32.03
2019-06-07T05:00:00.249Z,23.90
2019-06-07T05:01:27.195Z,24.67
2019-06-07T05:03:23.536Z,29.37
2019-06-07T05:05:25.649Z,29.75
2019-06-07T05:07:27.663Z,22.60
2019-06-07T05:09:30.124Z,24.55
2019-06-07T05:11:33.923Z,25.65
2019-06-07T05:13:39.042Z,28.85
2019-06-07T05:15:42.212Z,28.75
2019-06-07T05:17:45.187Z,25.12
2019-06-07T05:19:47.279Z,26.60
2019-06-07T05:22:03.564Z,24.70
2019-06-07T05:24:06.662Z,26.33
2019-06-07T05:25:57.639Z,27.25
2019-06-07T05:27:59.636Z,29.30
2019-06-07T05:30:24.281Z,26.75
2019-06-07T05:32:05.685Z,27.85
2019-06-07T05:34:07.910Z,26.77
2019-06-07T05:36:09.960Z,30.43
2019-06-07T05:38:12.026Z,28.25
2019-06-07T05:40:18.816Z,28.45
2019-06-07T05:42:20.866Z,23.02
2019-06-07T05:44:22.850Z,29.92
2019-06-07T05:46:25.110Z,27.50
2019-06-07T05:48:27.204Z,28.12
2019-06-07T05:52:44.348Z,27.70
2019-06-07T05:54:46.817Z,30.70
2019-06-07T05:56:48.049Z,26.85
2019-06-07T05:58:50.085Z,22.55
2019-06-07T06:00:52.177Z,24.32
2019-06-07T06:03:04.633Z,19.55
2019-06-07T06:04:58.092Z,23.18
2019-06-07T06:07:00.106Z,26.68
2019-06-07T06:09:13.250Z,22.13
2019-06-07T06:11:07.256Z,19.85
2019-06-07T06:13:09.295Z,23.02
2019-06-07T06:15:11.594Z,23.73
2019-06-07T06:17:13.644Z,18.50
2019-06-07T06:19:15.649Z,21.82
2019-06-07T06:21:20.206Z,18.20
2019-06-07T06:23:21.697Z,17.52
2019-06-07T06:25:33.645Z,20.30
2019-06-07T06:28:03.448Z,15.05
2019-06-07T06:29:31.882Z,19.27
2019-06-07T06:31:33.960Z,19.40
2019-06-07T06:33:37.347Z,18.10
2019-06-07T06:35:39.890Z,14.98
2019-06-07T06:39:48.209Z,18.65
2019-06-07T06:41:58.790Z,14.68
2019-06-07T06:43:54.642Z,16.75
2019-06-07T06:45:56.685Z,15.83
2019-06-07T06:47:58.697Z,14.25
2019-06-07T06:50:02.057Z,15.35
2019-06-07T06:52:04.332Z,19.57
2019-06-07T06:54:06.322Z,16.75
2019-06-07T06:56:08.302Z,15.65
2019-06-07T06:58:10.429Z,14.98
2019-06-07T07:00:13.299Z,16.20
2019-06-07T07:02:15.300Z,17.10
2019-06-07T07:04:17.515Z,17.07
2019-06-07T07:06:26.290Z,17.55
2019-06-07T07:08:27.005Z,13.93
2019-06-07T07:10:38.764Z,20.17
2019-06-07T07:12:40.762Z,15.28
2019-06-07T07:14:45.532Z,15.70
2019-06-07T07:16:50.046Z,15.38
2019-06-07T07:18:52.900Z,16.00
2019-06-07T07:20:57.412Z,16.30
2019-06-07T07:22:59.646Z,18.70
2019-06-07T07:25:01.621Z,15.08
2019-06-07T07:27:04.965Z,16.70
2019-06-07T07:29:07.212Z,13.62
2019-06-07T07:31:09.221Z,14.95
2019-06-07T07:33:11.216Z,14.15
2019-06-07T07:35:13.432Z,12.58
2019-06-07T07:37:15.661Z,13.55
2019-06-07T07:39:17.662Z,12.65
2019-06-07T07:41:19.747Z,13.18
2019-06-07T07:43:22.296Z,13.98
2019-06-07T07:45:24.395Z,12.35
2019-06-07T07:47:26.434Z,14.15
2019-06-07T07:49:28.448Z,11.20
2019-06-07T07:51:32.173Z,14.98
2019-06-07T07:53:48.499Z,14.18
2019-06-07T07:55:39.263Z,14.10
2019-06-07T07:57:41.282Z,13.10
2019-06-07T08:00:00.539Z,12.40
2019-06-07T08:01:48.659Z,12.50
2019-06-07T08:03:54.920Z,13.00
2019-06-07T08:05:58.919Z,13.22
2019-06-07T08:08:01.529Z,13.28
2019-06-07T08:10:04.555Z,13.50
2019-06-07T08:12:06.676Z,14.53
2019-06-07T08:14:09.293Z,11.80
2019-06-07T08:16:15.681Z,12.25
2019-06-07T08:18:17.471Z,13.35
2019-06-07T08:22:22.401Z,12.33
2019-06-07T08:24:24.606Z,10.15
2019-06-07T08:26:26.590Z,10.28
2019-06-07T08:28:28.587Z,12.53
2019-06-07T08:32:34.686Z,14.15
2019-06-07T08:34:37.897Z,10.58
2019-06-07T08:36:42.522Z,12.63
2019-06-07T08:38:48.347Z,9.80
2019-06-07T08:40:58.471Z,13.45
2019-06-07T08:43:10.282Z,13.55
2019-06-07T08:45:03.593Z,10.60
2019-06-07T08:47:19.296Z,9.95
2019-06-07T08:49:05.796Z,9.55
2019-06-07T08:51:08.737Z,12.28
2019-06-07T08:53:12.814Z,11.35
2019-06-07T08:55:15.071Z,9.95
2019-06-07T08:57:21.768Z,17.75
2019-06-07T08:59:21.059Z,11.28
2019-06-07T09:01:24.236Z,13.55
2019-06-07T09:03:26.268Z,10.38
2019-06-07T09:05:29.205Z,12.40
2019-06-07T09:07:31.312Z,12.53
2019-06-07T09:09:33.354Z,13.20
2019-06-07T09:11:35.434Z,14.35
2019-06-07T09:13:37.536Z,12.28
2019-06-07T09:15:39.587Z,12.73
2019-06-07T09:18:29.750Z,11.22
2019-06-07T09:19:45.539Z,11.75
2019-06-07T09:21:47.591Z,11.88
2019-06-07T09:23:49.641Z,11.83
2019-06-07T09:26:02.560Z,12.70
2019-06-07T09:28:00.578Z,10.60
2019-06-07T09:30:03.160Z,10.08
2019-06-07T09:32:14.864Z,13.88
2019-06-07T09:34:13.948Z,12.20
2019-06-07T09:36:14.079Z,12.37
2019-06-07T09:38:25.487Z,11.15
2019-06-07T09:40:27.878Z,9.53
2019-06-07T09:42:29.897Z,10.63
2019-06-07T09:44:31.950Z,11.80
2019-06-07T09:46:33.882Z,9.20
2019-06-07T09:50:39.894Z,9.90
2019-06-07T09:52:58.085Z,10.68
2019-06-07T09:56:51.068Z,17.15
2019-06-07T09:58:54.212Z,12.78
2019-06-07T10:00:59.279Z,11.33
2019-06-07T10:03:13.709Z,11.70
2019-06-07T10:05:08.207Z,10.10
2019-06-07T10:07:27.155Z,12.47
2019-06-07T10:11:17.546Z,11.80
2019-06-07T10:13:19.609Z,14.07
2019-06-07T10:15:21.622Z,11.15
2019-06-07T10:17:23.601Z,10.08
2019-06-07T10:19:25.589Z,10.28
2019-06-07T10:21:27.587Z,13.22
2019-06-07T10:23:29.615Z,10.45
2019-06-07T10:25:31.738Z,12.43
2019-06-07T10:27:33.723Z,12.00
2019-06-07T10:29:35.833Z,11.18
2019-06-07T10:31:37.882Z,13.75
2019-06-07T10:33:40.089Z,12.75
2019-06-07T10:35:42.099Z,12.75
2019-06-07T10:37:44.113Z,15.40
2019-06-07T10:39:49.181Z,12.13
2019-06-07T10:41:50.128Z,11.08
2019-06-07T10:43:52.140Z,10.72
2019-06-07T10:45:54.246Z,15.00
2019-06-07T10:47:56.347Z,12.30
2019-06-07T10:49:58.349Z,13.98
2019-06-07T10:52:03.330Z,12.55
2019-06-07T10:54:10.785Z,14.07
2019-06-07T10:56:09.061Z,12.40
2019-06-07T10:58:13.254Z,18.42
2019-06-07T11:00:17.221Z,13.08
2019-06-07T11:02:19.247Z,10.85
2019-06-07T11:04:21.301Z,13.00
2019-06-07T11:06:23.388Z,15.20
2019-06-07T11:08:25.441Z,21.30
2019-06-07T11:10:27.409Z,14.90
2019-06-07T11:12:30.657Z,13.45
2019-06-07T11:14:32.657Z,11.75
2019-06-07T11:16:34.657Z,13.50
2019-06-07T11:18:36.678Z,12.47
2019-06-07T11:20:38.700Z,13.28
2019-06-07T11:22:40.703Z,10.72
2019-06-07T11:24:42.806Z,13.65
2019-06-07T11:26:44.853Z,13.45
2019-06-07T11:28:46.902Z,13.45
2019-06-07T11:30:48.978Z,14.33
2019-06-07T11:32:51.184Z,10.68
2019-06-07T11:34:53.507Z,13.85
2019-06-07T11:36:55.651Z,14.38
2019-06-07T11:38:58.000Z,10.88
2019-06-07T11:41:00.024Z,12.68
2019-06-07T11:43:02.412Z,11.80
2019-06-07T11:45:05.724Z,13.45
2019-06-07T11:47:08.256Z,12.03
2019-06-07T11:51:14.908Z,10.68
2019-06-07T11:53:17.192Z,15.25
2019-06-07T11:55:19.306Z,13.62
2019-06-07T11:57:21.338Z,17.85
2019-06-07T11:59:23.335Z,13.38
2019-06-07T12:01:25.342Z,12.45
2019-06-07T12:03:27.345Z,14.40
2019-06-07T12:05:29.547Z,15.15
2019-06-07T12:07:31.607Z,13.05
2019-06-07T12:09:33.623Z,11.93
2019-06-07T12:11:35.901Z,15.88
2019-06-07T12:13:37.940Z,11.97
2019-06-07T12:15:39.936Z,13.88
2019-06-07T12:17:41.965Z,14.28
2019-06-07T12:19:44.097Z,14.23
2019-06-07T12:21:46.128Z,10.53
2019-06-07T12:23:48.260Z,15.20
2019-06-07T12:25:51.364Z,11.95
2019-06-07T12:27:53.646Z,12.85
2019-06-07T12:29:55.637Z,13.08
2019-06-07T12:31:57.676Z,13.13
2019-06-07T12:33:59.732Z,10.53
2019-06-07T12:36:02.438Z,13.78
2019-06-07T12:38:04.605Z,9.90
2019-06-07T12:40:08.475Z,13.32
2019-06-07T12:42:12.412Z,13.68
2019-06-07T12:44:16.569Z,13.13
2019-06-07T12:46:26.366Z,11.55
2019-06-07T12:48:26.136Z,14.10
2019-06-07T12:50:41.869Z,10.55
2019-06-07T12:52:32.292Z,15.13
2019-06-07T12:54:35.852Z,10.90
2019-06-07T12:56:37.857Z,15.40
2019-06-07T12:58:40.093Z,13.55
2019-06-07T13:00:42.129Z,10.93
2019-06-07T13:02:44.148Z,13.70
2019-06-07T13:04:46.238Z,10.50
2019-06-07T13:06:48.259Z,12.68
2019-06-07T13:08:50.291Z,10.90
2019-06-07T13:10:52.374Z,12.95
2019-06-07T13:12:54.484Z,11.97
2019-06-07T13:14:56.519Z,9.25
2019-06-07T13:16:58.775Z,11.95
2019-06-07T13:19:02.255Z,11.75
2019-06-07T13:21:04.304Z,9.33
2019-06-07T13:23:06.353Z,10.65
2019-06-07T13:25:08.790Z,11.20
2019-06-07T13:29:14.056Z,12.10
2019-06-07T13:31:16.511Z,15.13
2019-06-07T13:33:21.412Z,13.30
2019-06-07T13:35:23.823Z,11.08
2019-06-07T13:37:27.723Z,11.88
2019-06-07T13:39:30.007Z,11.80
2019-06-07T13:41:42.501Z,12.40
2019-06-07T13:43:37.886Z,10.55
2019-06-07T13:45:40.225Z,10.82
2019-06-07T13:47:42.264Z,12.85
2019-06-07T13:49:44.322Z,9.80
2019-06-07T13:51:46.477Z,9.73
2019-06-07T13:53:48.538Z,17.90
2019-06-07T13:55:50.965Z,10.90
2019-06-07T13:59:54.468Z,15.08
2019-06-07T14:01:56.502Z,10.82
2019-06-07T14:03:58.680Z,10.68
2019-06-07T14:06:00.828Z,11.25
2019-06-07T14:08:03.206Z,13.58
2019-06-07T14:10:05.539Z,12.00
2019-06-07T14:12:07.793Z,12.30
2019-06-07T14:14:09.846Z,12.28
2019-06-07T14:16:13.456Z,17.80
2019-06-07T14:18:15.560Z,15.15
2019-06-07T14:20:17.807Z,13.88
2019-06-07T14:22:20.543Z,14.35
2019-06-07T14:24:23.009Z,14.47
2019-06-07T14:28:30.821Z,9.57
2019-06-07T14:30:32.675Z,6.62
2019-06-07T14:32:35.220Z,5.33
2019-06-07T14:34:37.374Z,5.45
2019-06-07T14:36:40.530Z,8.58
2019-06-07T14:38:42.746Z,5.80
2019-06-07T14:43:15.406Z,8.83
2019-06-07T14:45:17.857Z,10.72
2019-06-07T14:49:21.834Z,11.20
2019-06-07T14:51:24.244Z,7.78
2019-06-07T14:53:26.653Z,7.40
2019-06-07T14:55:29.002Z,9.75
2019-06-07T14:59:34.896Z,9.43
2019-06-07T15:01:36.990Z,8.55
2019-06-07T15:03:39.305Z,6.20
2019-06-07T15:05:41.385Z,6.95
2019-06-07T15:07:43.417Z,7.72
2019-06-07T15:09:45.710Z,9.75
2019-06-07T15:11:47.765Z,5.45
2019-06-07T15:13:49.775Z,5.85
2019-06-07T15:15:51.845Z,8.18
2019-06-07T15:17:53.923Z,7.95
2019-06-07T15:19:55.979Z,11.55
2019-06-07T15:21:58.015Z,5.05
2019-06-07T15:24:00.221Z,4.58
2019-06-07T15:26:02.314Z,3.95
2019-06-07T15:28:04.360Z,4.53
2019-06-07T15:30:10.264Z,4.37
2019-06-07T15:32:10.953Z,3.20
2019-06-07T15:34:12.973Z,6.25
2019-06-07T15:36:15.175Z,4.83
2019-06-07T15:38:17.170Z,4.70
2019-06-07T15:40:19.761Z,3.00
2019-06-07T15:42:22.075Z,4.50
2019-06-07T15:46:26.523Z,3.02
2019-06-07T15:50:32.365Z,3.55
2019-06-07T15:52:35.824Z,3.25
2019-06-07T15:54:38.491Z,4.28
2019-06-07T15:56:41.411Z,3.87
2019-06-07T15:58:43.864Z,5.20
2019-06-07T16:00:49.754Z,4.17
2019-06-07T16:02:53.095Z,4.65
2019-06-07T16:04:55.510Z,5.25
2019-06-07T16:06:58.004Z,5.05
2019-06-07T16:11:04.371Z,3.85
2019-06-07T16:15:09.133Z,4.90
2019-06-07T16:17:11.409Z,3.95
2019-06-07T16:19:14.088Z,4.75
2019-06-07T16:21:16.608Z,1.92
2019-06-07T16:23:18.868Z,3.40
2019-06-07T16:25:21.278Z,2.62
2019-06-07T16:27:23.582Z,3.15
2019-06-07T16:29:27.300Z,3.35
2019-06-07T16:31:29.911Z,2.33
2019-06-07T16:33:32.316Z,3.67
2019-06-07T16:35:36.939Z,5.10
2019-06-07T16:37:40.666Z,10.38
2019-06-07T16:39:44.755Z,3.37
2019-06-07T16:41:48.846Z,3.40
2019-06-07T16:43:51.474Z,3.08
2019-06-07T16:47:55.620Z,3.92
2019-06-07T16:49:57.787Z,4.50
2019-06-07T16:51:59.923Z,4.42
2019-06-07T16:54:02.237Z,5.15
2019-06-07T16:56:05.048Z,3.58
2019-06-07T16:58:07.111Z,4.12
2019-06-07T17:00:10.005Z,2.83
2019-06-07T17:02:12.086Z,5.75
2019-06-07T17:04:14.292Z,2.98
2019-06-07T17:06:16.474Z,5.60
2019-06-07T17:08:18.623Z,3.77
2019-06-07T17:10:20.950Z,4.42
2019-06-07T17:12:22.975Z,4.53
2019-06-07T17:14:24.987Z,3.70
2019-06-07T17:16:27.053Z,5.17
2019-06-07T17:18:29.168Z,3.65
2019-06-07T17:20:31.223Z,4.22
2019-06-07T17:22:33.343Z,5.72
2019-06-07T17:24:35.391Z,3.45
2019-06-07T17:26:37.451Z,4.55
2019-06-07T17:28:39.730Z,4.85
2019-06-07T17:30:41.873Z,3.72
2019-06-07T17:32:53.820Z,2.25
2019-06-07T17:34:50.645Z,3.58
2019-06-07T17:36:52.723Z,4.12
2019-06-07T17:38:54.770Z,2.47
2019-06-07T17:40:56.827Z,3.22
2019-06-07T17:42:59.099Z,2.75
2019-06-07T17:45:01.318Z,2.58
2019-06-07T17:47:03.347Z,4.20
2019-06-07T17:49:05.493Z,2.17
2019-06-07T17:51:07.578Z,2.37
2019-06-07T17:53:09.613Z,3.80
2019-06-07T17:55:11.804Z,1.62
2019-06-07T17:57:13.912Z,2.85
2019-06-07T17:59:15.995Z,2.87
2019-06-07T18:01:18.019Z,3.75
2019-06-07T18:03:21.218Z,1.80
2019-06-07T18:05:23.341Z,3.05
2019-06-07T18:07:26.011Z,5.22
2019-06-07T18:09:28.434Z,4.25
2019-06-07T18:13:32.193Z,2.10
2019-06-07T18:15:41.719Z,1.98
2019-06-07T18:17:44.937Z,2.52
2019-06-07T18:19:47.086Z,1.87
2019-06-07T18:21:50.108Z,1.47
2019-06-07T18:23:54.725Z,3.87
2019-06-07T18:25:56.878Z,1.25
2019-06-07T18:27:59.034Z,3.25
2019-06-07T18:30:10.867Z,2.10
2019-06-07T18:32:06.232Z,3.08
2019-06-07T18:34:08.293Z,2.60
2019-06-07T18:36:10.371Z,3.85
2019-06-07T18:38:12.429Z,4.47
2019-06-07T18:40:14.593Z,3.87
2019-06-07T18:42:16.766Z,5.28
2019-06-07T18:44:21.856Z,4.58
2019-06-07T18:46:23.015Z,3.83
2019-06-07T18:48:25.149Z,4.28
2019-06-07T18:50:27.340Z,3.83
2019-06-07T18:52:32.124Z,3.52
2019-06-07T18:54:34.455Z,1.67
2019-06-07T18:58:38.126Z,1.70
2019-06-07T19:00:40.145Z,2.15
2019-06-07T19:02:42.474Z,2.95
2019-06-07T19:04:44.590Z,1.62
2019-06-07T19:06:46.668Z,2.87
2019-06-07T19:08:51.823Z,5.12
2019-06-07T19:10:52.707Z,4.17
2019-06-07T19:12:55.288Z,2.75
2019-06-07T19:14:57.631Z,5.03
2019-06-07T19:16:59.822Z,2.87
2019-06-07T19:19:01.824Z,2.45
2019-06-07T19:21:03.875Z,1.80
2019-06-07T19:23:05.890Z,5.03
2019-06-07T19:25:08.319Z,2.37
2019-06-07T19:27:10.435Z,2.42
2019-06-07T19:29:12.505Z,3.33
2019-06-07T19:31:14.576Z,2.10
2019-06-07T19:33:16.681Z,4.35
2019-06-07T19:35:18.889Z,2.42
2019-06-07T19:37:20.966Z,2.58
2019-06-07T19:39:23.132Z,3.75
2019-06-07T19:41:25.193Z,3.22
2019-06-07T19:43:27.475Z,3.00
2019-06-07T19:45:31.536Z,1.42
2019-06-07T19:47:33.648Z,3.75
2019-06-07T19:49:35.748Z,4.05
2019-06-07T19:51:37.780Z,5.55
2019-06-07T19:53:39.894Z,1.70
2019-06-07T19:55:41.925Z,2.35
2019-06-07T19:57:43.983Z,3.92
2019-06-07T19:59:46.084Z,5.30
2019-06-07T20:01:48.161Z,2.20
2019-06-07T20:03:50.223Z,2.50
2019-06-07T20:05:52.287Z,2.98
2019-06-07T20:07:54.538Z,5.92
2019-06-07T20:09:56.634Z,2.67
2019-06-07T20:11:58.652Z,2.05
2019-06-07T20:14:00.854Z,4.42
2019-06-07T20:16:03.074Z,2.30
2019-06-07T20:18:05.548Z,2.62
2019-06-07T20:22:11.088Z,3.22
2019-06-07T20:24:26.386Z,3.12
2019-06-07T20:26:17.211Z,2.92
2019-06-07T20:28:19.283Z,3.58
2019-06-07T20:30:21.711Z,6.72
2019-06-07T20:34:25.400Z,4.65
2019-06-07T20:36:27.511Z,1.87
2019-06-07T20:38:29.595Z,3.33
2019-06-07T20:40:31.641Z,5.28
2019-06-07T20:42:33.740Z,4.62
2019-06-07T20:44:35.841Z,3.12
2019-06-07T20:46:38.111Z,4.15
2019-06-07T20:48:40.244Z,4.00
2019-06-07T20:50:42.321Z,2.58
2019-06-07T20:52:44.363Z,3.00
2019-06-07T20:54:46.447Z,3.17
2019-06-07T20:56:48.545Z,2.67
2019-06-07T20:58:50.663Z,3.90
2019-06-07T21:00:52.748Z,3.90
2019-06-07T21:02:54.813Z,3.05
2019-06-07T21:04:56.899Z,3.65
2019-06-07T21:06:59.228Z,6.45
2019-06-07T21:09:01.561Z,2.72
2019-06-07T21:11:05.813Z,5.85
2019-06-07T21:13:08.211Z,3.30
2019-06-07T21:17:13.940Z,3.10
2019-06-07T21:19:16.168Z,3.12
2019-06-07T21:21:18.228Z,5.97
2019-06-07T21:23:20.351Z,2.45
2019-06-07T21:25:22.338Z,4.10
2019-06-07T21:27:24.467Z,3.60
2019-06-07T21:29:26.491Z,3.58
2019-06-07T21:31:28.522Z,3.80
2019-06-07T21:33:30.795Z,5.00
2019-06-07T21:35:32.907Z,3.98
2019-06-07T21:37:35.296Z,2.40
2019-06-07T21:39:37.424Z,4.42
2019-06-07T21:41:39.510Z,5.00
2019-06-07T21:43:41.605Z,1.98
2019-06-07T21:45:44.457Z,8.58
2019-06-07T21:47:46.930Z,5.35
2019-06-07T21:51:50.738Z,4.00
2019-06-07T21:53:52.844Z,5.90
2019-06-07T21:55:54.900Z,9.18
2019-06-07T21:57:56.950Z,3.87
2019-06-07T21:59:59.063Z,3.30
2019-06-07T22:02:01.115Z,4.40
2019-06-07T22:04:03.561Z,5.12
2019-06-07T22:06:07.509Z,5.37
2019-06-07T22:08:10.396Z,7.10
2019-06-07T22:10:14.480Z,2.22
2019-06-07T22:12:16.607Z,3.80
2019-06-07T22:14:19.435Z,3.42
2019-06-07T22:16:29.030Z,3.75
2019-06-07T22:18:25.610Z,2.58
2019-06-07T22:20:27.651Z,3.25
2019-06-07T22:22:29.670Z,3.42
2019-06-07T22:24:31.716Z,5.20
2019-06-07T22:26:33.769Z,4.10
2019-06-07T22:28:35.774Z,4.50
2019-06-07T22:30:37.802Z,5.37
2019-06-07T22:32:39.823Z,5.47
2019-06-07T22:34:41.956Z,1.70
2019-06-07T22:36:43.990Z,2.27
2019-06-07T22:38:46.043Z,3.17
2019-06-07T22:40:48.053Z,5.15
2019-06-07T22:42:50.123Z,6.95
2019-06-07T22:44:52.337Z,2.27
2019-06-07T22:46:54.416Z,4.87
2019-06-07T22:48:56.676Z,2.52
2019-06-07T22:51:00.063Z,2.05
2019-06-07T22:53:02.095Z,2.20
2019-06-07T22:55:04.477Z,1.62
2019-06-07T22:59:20.505Z,4.37
2019-06-07T23:01:22.843Z,3.90
2019-06-07T23:03:24.877Z,1.95
2019-06-07T23:05:26.924Z,5.97
2019-06-07T23:07:28.962Z,5.30
2019-06-07T23:09:30.982Z,3.58
2019-06-07T23:11:33.119Z,2.17
2019-06-07T23:13:35.132Z,2.90
2019-06-07T23:15:37.768Z,1.95
2019-06-07T23:17:39.779Z,3.58
2019-06-07T23:19:41.864Z,3.55
2019-06-07T23:21:43.936Z,1.92
2019-06-07T23:23:46.073Z,4.17
2019-06-07T23:25:48.129Z,3.85
2019-06-07T23:27:50.161Z,3.65
2019-06-07T23:29:52.188Z,4.08
2019-06-07T23:31:54.227Z,5.05
2019-06-07T23:33:56.235Z,2.77
2019-06-07T23:35:58.337Z,3.12
2019-06-07T23:38:00.440Z,4.62
2019-06-07T23:41:13.287Z,5.62
2019-06-07T23:43:15.518Z,4.30
2019-06-07T23:45:17.651Z,7.45
2019-06-07T23:47:20.650Z,4.53
2019-06-07T23:49:23.735Z,4.40
2019-06-07T23:51:25.745Z,5.90
2019-06-07T23:53:27.923Z,2.80
2019-06-07T23:55:29.925Z,2.27
2019-06-07T23:57:31.965Z,3.40
2019-06-07T23:59:33.974Z,2.52
